Hlavní strana
METAR-TAF:

METAR-TAF

Letiště :

Fort Madison Municipal Airport

Fort Madison, Iowa, Spojené státy americké

zeměpisná šířka: 40-40N, zeměpisná délka: 091-20W, výška: 221 m

Aktuální stav počasí

Zpráva byla vytvořena před 30 minutami, v 09:35 UTC
Severovýchodní vítr 6 kt
Teplota 4°C
Vlhkost vzduchu 70%
Tlak 1011 hPa
Viditelnost: 16.1 km

METAR: KFSW 240935Z AUTO 05006KT 10SM 04/M01 A2986 RMK AO2

Čas: 04:05 (10:05 UTC)


TAF: chybějící

Stav a předpovědi počasí z více než 4 000 letišť (zprávy METAR a TAF).

Červené a žluté tečky na mapě představují dostupné meteorologické stanice.

Když kurzor umístíte na tečku, zobrazí se název stanice.

Pak kliknutím zobrazíte stav a předpověď počasí.

Chcete-li změnit mapu, kliknutím na zelené tlačítko se znaménkem +mapu přiblížíte, kliknutím na zelené tlačítko se znaménkem – mapu oddálíte a kliknutím na zelené šipky přejdete na sousední mapy.


METAR-TAF: